sensor_id;sensor_type;location;lat;lon;timestamp;P1;durP1;ratioP1;P2;durP2;ratioP2
8058;SDS011;4072;42.668;23.396;2023-02-03T00:00:04;3.87;;;2.50;;
8058;SDS011;4072;42.668;23.396;2023-02-03T00:02:33;5.13;;;2.60;;
8058;SDS011;4072;42.668;23.396;2023-02-03T00:05:01;3.20;;;2.30;;
8058;SDS011;4072;42.668;23.396;2023-02-03T00:07:29;2.87;;;2.20;;
8058;SDS011;4072;42.668;23.396;2023-02-03T00:09:57;3.10;;;2.70;;
8058;SDS011;4072;42.668;23.396;2023-02-03T00:12:26;2.93;;;2.47;;
8058;SDS011;4072;42.668;23.396;2023-02-03T00:14:53;4.73;;;2.23;;
8058;SDS011;4072;42.668;23.396;2023-02-03T00:17:21;2.93;;;2.20;;
8058;SDS011;4072;42.668;23.396;2023-02-03T00:19:49;4.27;;;2.93;;
8058;SDS011;4072;42.668;23.396;2023-02-03T00:22:16;4.83;;;2.90;;
8058;SDS011;4072;42.668;23.396;2023-02-03T00:24:44;3.30;;;2.30;;
8058;SDS011;4072;42.668;23.396;2023-02-03T00:27:11;6.83;;;3.10;;
8058;SDS011;4072;42.668;23.396;2023-02-03T00:29:40;4.73;;;3.23;;
8058;SDS011;4072;42.668;23.396;2023-02-03T00:32:08;3.30;;;3.00;;
8058;SDS011;4072;42.668;23.396;2023-02-03T00:34:36;5.43;;;3.20;;
8058;SDS011;4072;42.668;23.396;2023-02-03T00:37:03;3.40;;;2.83;;
8058;SDS011;4072;42.668;23.396;2023-02-03T00:39:31;3.03;;;2.73;;
8058;SDS011;4072;42.668;23.396;2023-02-03T00:41:59;4.10;;;3.23;;
8058;SDS011;4072;42.668;23.396;2023-02-03T00:44:26;4.07;;;3.20;;
8058;SDS011;4072;42.668;23.396;2023-02-03T00:46:55;4.37;;;3.30;;
8058;SDS011;4072;42.668;23.396;2023-02-03T00:49:23;4.80;;;3.80;;
8058;SDS011;4072;42.668;23.396;2023-02-03T00:51:51;4.47;;;3.30;;
8058;SDS011;4072;42.668;23.396;2023-02-03T00:54:18;4.47;;;3.60;;
8058;SDS011;4072;42.668;23.396;2023-02-03T00:56:46;5.37;;;3.67;;
8058;SDS011;4072;42.668;23.396;2023-02-03T00:59:13;3.53;;;3.23;;
8058;SDS011;4072;42.668;23.396;2023-02-03T01:01:41;5.83;;;3.20;;
8058;SDS011;4072;42.668;23.396;2023-02-03T01:04:10;6.03;;;3.80;;
8058;SDS011;4072;42.668;23.396;2023-02-03T01:06:39;4.23;;;3.50;;
8058;SDS011;4072;42.668;23.396;2023-02-03T01:09:06;4.77;;;3.43;;
8058;SDS011;4072;42.668;23.396;2023-02-03T01:11:34;5.63;;;3.87;;
8058;SDS011;4072;42.668;23.396;2023-02-03T01:14:02;4.57;;;3.50;;
8058;SDS011;4072;42.668;23.396;2023-02-03T01:16:29;3.27;;;2.90;;
8058;SDS011;4072;42.668;23.396;2023-02-03T01:19:01;3.67;;;3.30;;
8058;SDS011;4072;42.668;23.396;2023-02-03T01:21:30;3.47;;;3.13;;
8058;SDS011;4072;42.668;23.396;2023-02-03T01:23:58;3.97;;;3.07;;
8058;SDS011;4072;42.668;23.396;2023-02-03T01:26:26;4.60;;;2.90;;
8058;SDS011;4072;42.668;23.396;2023-02-03T01:28:55;4.60;;;3.10;;
8058;SDS011;4072;42.668;23.396;2023-02-03T01:31:23;3.73;;;3.00;;
8058;SDS011;4072;42.668;23.396;2023-02-03T01:33:52;3.27;;;2.90;;
8058;SDS011;4072;42.668;23.396;2023-02-03T01:36:20;4.03;;;3.00;;
8058;SDS011;4072;42.668;23.396;2023-02-03T01:38:49;2.77;;;2.30;;
8058;SDS011;4072;42.668;23.396;2023-02-03T01:41:18;3.10;;;2.80;;
8058;SDS011;4072;42.668;23.396;2023-02-03T01:43:47;3.00;;;2.60;;
8058;SDS011;4072;42.668;23.396;2023-02-03T01:46:17;4.47;;;2.40;;
8058;SDS011;4072;42.668;23.396;2023-02-03T01:48:47;4.30;;;2.70;;
8058;SDS011;4072;42.668;23.396;2023-02-03T01:51:15;3.90;;;2.67;;
8058;SDS011;4072;42.668;23.396;2023-02-03T01:53:43;2.63;;;2.03;;
8058;SDS011;4072;42.668;23.396;2023-02-03T01:56:12;3.43;;;1.97;;
8058;SDS011;4072;42.668;23.396;2023-02-03T01:58:40;1.67;;;1.57;;
8058;SDS011;4072;42.668;23.396;2023-02-03T02:01:09;3.73;;;2.47;;
8058;SDS011;4072;42.668;23.396;2023-02-03T02:03:37;2.67;;;2.10;;
8058;SDS011;4072;42.668;23.396;2023-02-03T02:06:06;2.23;;;1.97;;
8058;SDS011;4072;42.668;23.396;2023-02-03T02:08:34;3.60;;;1.90;;
8058;SDS011;4072;42.668;23.396;2023-02-03T02:11:02;2.47;;;2.00;;
8058;SDS011;4072;42.668;23.396;2023-02-03T02:13:32;1.90;;;1.60;;
8058;SDS011;4072;42.668;23.396;2023-02-03T02:16:03;2.37;;;1.83;;
8058;SDS011;4072;42.668;23.396;2023-02-03T02:18:39;2.23;;;1.70;;
8058;SDS011;4072;42.668;23.396;2023-02-03T02:21:15;1.83;;;1.73;;
8058;SDS011;4072;42.668;23.396;2023-02-03T02:32:11;1.70;;;1.60;;
8058;SDS011;4072;42.668;23.396;2023-02-03T02:34:46;1.90;;;1.50;;
8058;SDS011;4072;42.668;23.396;2023-02-03T02:37:18;1.97;;;1.70;;
8058;SDS011;4072;42.668;23.396;2023-02-03T02:39:51;3.43;;;1.87;;
8058;SDS011;4072;42.668;23.396;2023-02-03T02:42:23;3.53;;;2.30;;
8058;SDS011;4072;42.668;23.396;2023-02-03T02:44:54;4.00;;;2.30;;
8058;SDS011;4072;42.668;23.396;2023-02-03T02:47:24;2.53;;;2.10;;
8058;SDS011;4072;42.668;23.396;2023-02-03T02:49:53;3.13;;;2.20;;
8058;SDS011;4072;42.668;23.396;2023-02-03T02:52:23;3.73;;;1.93;;
8058;SDS011;4072;42.668;23.396;2023-02-03T02:54:53;3.47;;;2.30;;
8058;SDS011;4072;42.668;23.396;2023-02-03T02:57:22;2.50;;;2.30;;
8058;SDS011;4072;42.668;23.396;2023-02-03T02:59:52;2.50;;;2.27;;
8058;SDS011;4072;42.668;23.396;2023-02-03T03:02:20;2.70;;;2.03;;
8058;SDS011;4072;42.668;23.396;2023-02-03T03:04:49;1.87;;;1.77;;
8058;SDS011;4072;42.668;23.396;2023-02-03T03:07:18;2.10;;;1.73;;
8058;SDS011;4072;42.668;23.396;2023-02-03T03:09:49;2.50;;;2.30;;
8058;SDS011;4072;42.668;23.396;2023-02-03T03:12:19;2.33;;;2.00;;
8058;SDS011;4072;42.668;23.396;2023-02-03T03:14:49;2.60;;;2.40;;
8058;SDS011;4072;42.668;23.396;2023-02-03T03:17:19;2.70;;;2.03;;
8058;SDS011;4072;42.668;23.396;2023-02-03T03:19:51;2.20;;;2.07;;
8058;SDS011;4072;42.668;23.396;2023-02-03T03:22:21;5.17;;;2.00;;
8058;SDS011;4072;42.668;23.396;2023-02-03T03:24:51;2.27;;;2.07;;
8058;SDS011;4072;42.668;23.396;2023-02-03T03:27:22;2.53;;;1.87;;
8058;SDS011;4072;42.668;23.396;2023-02-03T03:29:51;2.70;;;2.20;;
8058;SDS011;4072;42.668;23.396;2023-02-03T03:32:19;5.63;;;1.80;;
8058;SDS011;4072;42.668;23.396;2023-02-03T03:34:47;1.93;;;1.83;;
8058;SDS011;4072;42.668;23.396;2023-02-03T03:37:17;1.97;;;1.80;;
8058;SDS011;4072;42.668;23.396;2023-02-03T03:39:46;1.47;;;1.37;;
8058;SDS011;4072;42.668;23.396;2023-02-03T03:42:18;2.27;;;2.03;;
8058;SDS011;4072;42.668;23.396;2023-02-03T03:44:48;2.90;;;2.03;;
8058;SDS011;4072;42.668;23.396;2023-02-03T03:47:20;2.40;;;2.20;;
8058;SDS011;4072;42.668;23.396;2023-02-03T03:49:50;1.53;;;1.43;;
8058;SDS011;4072;42.668;23.396;2023-02-03T03:52:22;1.67;;;1.50;;
8058;SDS011;4072;42.668;23.396;2023-02-03T03:54:51;2.57;;;1.50;;
8058;SDS011;4072;42.668;23.396;2023-02-03T03:57:20;2.13;;;1.93;;
8058;SDS011;4072;42.668;23.396;2023-02-03T03:59:49;1.90;;;1.70;;
8058;SDS011;4072;42.668;23.396;2023-02-03T04:02:17;1.77;;;1.60;;
8058;SDS011;4072;42.668;23.396;2023-02-03T04:04:46;2.73;;;1.70;;
8058;SDS011;4072;42.668;23.396;2023-02-03T04:07:14;1.87;;;1.77;;
8058;SDS011;4072;42.668;23.396;2023-02-03T04:09:44;2.57;;;1.80;;
8058;SDS011;4072;42.668;23.396;2023-02-03T04:12:12;2.10;;;1.90;;
8058;SDS011;4072;42.668;23.396;2023-02-03T04:14:42;1.73;;;1.63;;
8058;SDS011;4072;42.668;23.396;2023-02-03T04:17:10;2.37;;;2.23;;
8058;SDS011;4072;42.668;23.396;2023-02-03T04:19:38;2.20;;;2.00;;
8058;SDS011;4072;42.668;23.396;2023-02-03T04:22:05;2.10;;;1.90;;
8058;SDS011;4072;42.668;23.396;2023-02-03T04:24:33;3.00;;;2.60;;
8058;SDS011;4072;42.668;23.396;2023-02-03T04:27:02;2.20;;;2.00;;
8058;SDS011;4072;42.668;23.396;2023-02-03T04:29:30;2.23;;;2.03;;
8058;SDS011;4072;42.668;23.396;2023-02-03T04:31:58;8.07;;;2.17;;
8058;SDS011;4072;42.668;23.396;2023-02-03T04:34:26;5.20;;;2.13;;
8058;SDS011;4072;42.668;23.396;2023-02-03T04:36:53;2.17;;;1.90;;
8058;SDS011;4072;42.668;23.396;2023-02-03T04:39:21;2.50;;;2.03;;
8058;SDS011;4072;42.668;23.396;2023-02-03T04:41:49;2.33;;;2.13;;
8058;SDS011;4072;42.668;23.396;2023-02-03T04:44:18;2.53;;;2.33;;
8058;SDS011;4072;42.668;23.396;2023-02-03T04:46:45;3.53;;;2.03;;
8058;SDS011;4072;42.668;23.396;2023-02-03T04:49:14;4.00;;;2.60;;
8058;SDS011;4072;42.668;23.396;2023-02-03T04:51:42;2.27;;;2.07;;
8058;SDS011;4072;42.668;23.396;2023-02-03T04:54:11;1.83;;;1.50;;
8058;SDS011;4072;42.668;23.396;2023-02-03T04:56:40;3.70;;;2.43;;
8058;SDS011;4072;42.668;23.396;2023-02-03T04:59:08;2.30;;;2.00;;
8058;SDS011;4072;42.668;23.396;2023-02-03T05:01:37;3.07;;;2.20;;
8058;SDS011;4072;42.668;23.396;2023-02-03T05:04:04;2.27;;;2.00;;
8058;SDS011;4072;42.668;23.396;2023-02-03T05:06:32;2.10;;;2.00;;
8058;SDS011;4072;42.668;23.396;2023-02-03T05:09:00;2.60;;;2.40;;
8058;SDS011;4072;42.668;23.396;2023-02-03T05:11:27;2.93;;;2.60;;
8058;SDS011;4072;42.668;23.396;2023-02-03T05:13:55;3.13;;;2.33;;
8058;SDS011;4072;42.668;23.396;2023-02-03T05:16:23;2.77;;;2.40;;
8058;SDS011;4072;42.668;23.396;2023-02-03T05:18:52;3.00;;;2.60;;
8058;SDS011;4072;42.668;23.396;2023-02-03T05:21:19;2.70;;;2.50;;
8058;SDS011;4072;42.668;23.396;2023-02-03T05:23:47;2.60;;;2.40;;
8058;SDS011;4072;42.668;23.396;2023-02-03T05:26:15;3.00;;;2.77;;
8058;SDS011;4072;42.668;23.396;2023-02-03T05:28:42;3.43;;;2.70;;
8058;SDS011;4072;42.668;23.396;2023-02-03T05:31:10;3.10;;;2.40;;
8058;SDS011;4072;42.668;23.396;2023-02-03T05:33:38;4.00;;;3.10;;
8058;SDS011;4072;42.668;23.396;2023-02-03T05:36:07;4.83;;;3.00;;
8058;SDS011;4072;42.668;23.396;2023-02-03T05:38:35;3.87;;;3.17;;
8058;SDS011;4072;42.668;23.396;2023-02-03T05:41:03;2.90;;;2.60;;
8058;SDS011;4072;42.668;23.396;2023-02-03T05:43:48;2.50;;;2.30;;
8058;SDS011;4072;42.668;23.396;2023-02-03T05:46:16;3.50;;;2.73;;
8058;SDS011;4072;42.668;23.396;2023-02-03T05:48:43;2.97;;;2.47;;
8058;SDS011;4072;42.668;23.396;2023-02-03T05:51:12;3.57;;;3.10;;
8058;SDS011;4072;42.668;23.396;2023-02-03T05:53:40;4.57;;;2.57;;
8058;SDS011;4072;42.668;23.396;2023-02-03T05:56:08;3.03;;;2.83;;
8058;SDS011;4072;42.668;23.396;2023-02-03T05:58:35;3.10;;;2.80;;
8058;SDS011;4072;42.668;23.396;2023-02-03T06:01:03;2.83;;;2.60;;
8058;SDS011;4072;42.668;23.396;2023-02-03T06:03:31;4.20;;;3.13;;
8058;SDS011;4072;42.668;23.396;2023-02-03T06:05:59;3.67;;;3.37;;
8058;SDS011;4072;42.668;23.396;2023-02-03T06:08:28;4.07;;;3.37;;
8058;SDS011;4072;42.668;23.396;2023-02-03T06:10:56;3.37;;;3.07;;
8058;SDS011;4072;42.668;23.396;2023-02-03T06:13:24;5.77;;;4.00;;
8058;SDS011;4072;42.668;23.396;2023-02-03T06:15:51;3.23;;;2.93;;
8058;SDS011;4072;42.668;23.396;2023-02-03T06:18:19;3.77;;;3.47;;
8058;SDS011;4072;42.668;23.396;2023-02-03T06:20:46;4.17;;;2.33;;
8058;SDS011;4072;42.668;23.396;2023-02-03T06:23:14;2.90;;;2.70;;
8058;SDS011;4072;42.668;23.396;2023-02-03T06:25:46;3.33;;;3.03;;
8058;SDS011;4072;42.668;23.396;2023-02-03T06:28:14;4.93;;;3.40;;
8058;SDS011;4072;42.668;23.396;2023-02-03T06:30:42;4.30;;;3.83;;
8058;SDS011;4072;42.668;23.396;2023-02-03T06:33:10;3.40;;;3.07;;
8058;SDS011;4072;42.668;23.396;2023-02-03T06:35:37;3.30;;;3.00;;
8058;SDS011;4072;42.668;23.396;2023-02-03T06:38:05;3.60;;;3.30;;
8058;SDS011;4072;42.668;23.396;2023-02-03T06:40:32;4.60;;;2.50;;
8058;SDS011;4072;42.668;23.396;2023-02-03T06:43:01;3.73;;;2.80;;
8058;SDS011;4072;42.668;23.396;2023-02-03T06:45:29;4.50;;;3.13;;
8058;SDS011;4072;42.668;23.396;2023-02-03T06:47:57;2.40;;;2.20;;
8058;SDS011;4072;42.668;23.396;2023-02-03T06:50:24;3.47;;;2.50;;
8058;SDS011;4072;42.668;23.396;2023-02-03T06:52:53;5.37;;;2.90;;
8058;SDS011;4072;42.668;23.396;2023-02-03T06:55:20;2.53;;;2.33;;
8058;SDS011;4072;42.668;23.396;2023-02-03T06:57:48;3.53;;;2.70;;
8058;SDS011;4072;42.668;23.396;2023-02-03T07:00:17;4.53;;;2.37;;
8058;SDS011;4072;42.668;23.396;2023-02-03T07:02:45;3.37;;;2.10;;
8058;SDS011;4072;42.668;23.396;2023-02-03T07:05:13;2.97;;;2.53;;
8058;SDS011;4072;42.668;23.396;2023-02-03T07:07:40;2.20;;;2.00;;
8058;SDS011;4072;42.668;23.396;2023-02-03T07:10:08;5.70;;;2.13;;
8058;SDS011;4072;42.668;23.396;2023-02-03T07:12:36;3.87;;;2.37;;
8058;SDS011;4072;42.668;23.396;2023-02-03T07:15:04;1.87;;;1.77;;
8058;SDS011;4072;42.668;23.396;2023-02-03T07:17:33;1.80;;;1.70;;
8058;SDS011;4072;42.668;23.396;2023-02-03T07:20:01;2.57;;;2.27;;
8058;SDS011;4072;42.668;23.396;2023-02-03T07:22:28;5.17;;;2.43;;
8058;SDS011;4072;42.668;23.396;2023-02-03T07:24:56;2.40;;;2.10;;
8058;SDS011;4072;42.668;23.396;2023-02-03T07:27:23;5.20;;;2.00;;
8058;SDS011;4072;42.668;23.396;2023-02-03T07:29:53;3.27;;;2.40;;
8058;SDS011;4072;42.668;23.396;2023-02-03T07:32:20;3.53;;;2.73;;
8058;SDS011;4072;42.668;23.396;2023-02-03T07:34:49;4.27;;;2.73;;
8058;SDS011;4072;42.668;23.396;2023-02-03T07:37:17;2.40;;;2.20;;
8058;SDS011;4072;42.668;23.396;2023-02-03T07:39:45;1.97;;;1.77;;
8058;SDS011;4072;42.668;23.396;2023-02-03T07:42:12;3.23;;;2.93;;
8058;SDS011;4072;42.668;23.396;2023-02-03T07:44:40;4.60;;;2.40;;
8058;SDS011;4072;42.668;23.396;2023-02-03T07:47:07;3.73;;;2.10;;
8058;SDS011;4072;42.668;23.396;2023-02-03T07:49:38;3.17;;;2.83;;
8058;SDS011;4072;42.668;23.396;2023-02-03T07:52:07;2.87;;;2.63;;
8058;SDS011;4072;42.668;23.396;2023-02-03T07:54:34;4.30;;;2.57;;
8058;SDS011;4072;42.668;23.396;2023-02-03T07:57:02;4.27;;;1.80;;
8058;SDS011;4072;42.668;23.396;2023-02-03T07:59:30;2.47;;;2.23;;
8058;SDS011;4072;42.668;23.396;2023-02-03T08:01:57;1.70;;;1.53;;
8058;SDS011;4072;42.668;23.396;2023-02-03T08:04:25;2.57;;;1.40;;
8058;SDS011;4072;42.668;23.396;2023-02-03T08:06:53;3.63;;;2.13;;
8058;SDS011;4072;42.668;23.396;2023-02-03T08:09:22;3.43;;;2.40;;
8058;SDS011;4072;42.668;23.396;2023-02-03T08:11:49;2.43;;;2.07;;
8058;SDS011;4072;42.668;23.396;2023-02-03T08:14:17;2.20;;;1.67;;
8058;SDS011;4072;42.668;23.396;2023-02-03T08:16:45;2.13;;;1.40;;
8058;SDS011;4072;42.668;23.396;2023-02-03T08:19:12;1.77;;;1.40;;
8058;SDS011;4072;42.668;23.396;2023-02-03T08:21:40;5.00;;;3.17;;
8058;SDS011;4072;42.668;23.396;2023-02-03T08:24:07;2.27;;;2.07;;
8058;SDS011;4072;42.668;23.396;2023-02-03T08:26:37;1.93;;;1.83;;
8058;SDS011;4072;42.668;23.396;2023-02-03T08:29:05;3.27;;;2.00;;
8058;SDS011;4072;42.668;23.396;2023-02-03T08:31:33;3.20;;;2.37;;
8058;SDS011;4072;42.668;23.396;2023-02-03T08:34:01;1.73;;;1.63;;
8058;SDS011;4072;42.668;23.396;2023-02-03T08:36:28;4.27;;;2.20;;
8058;SDS011;4072;42.668;23.396;2023-02-03T08:38:56;2.30;;;2.10;;
8058;SDS011;4072;42.668;23.396;2023-02-03T08:41:24;2.20;;;2.00;;
8058;SDS011;4072;42.668;23.396;2023-02-03T08:43:53;2.93;;;2.03;;
8058;SDS011;4072;42.668;23.396;2023-02-03T08:46:21;2.83;;;1.97;;
8058;SDS011;4072;42.668;23.396;2023-02-03T08:48:48;4.90;;;3.83;;
8058;SDS011;4072;42.668;23.396;2023-02-03T08:51:18;3.77;;;1.80;;
8058;SDS011;4072;42.668;23.396;2023-02-03T08:53:45;1.97;;;1.77;;
8058;SDS011;4072;42.668;23.396;2023-02-03T08:56:13;2.47;;;1.80;;
8058;SDS011;4072;42.668;23.396;2023-02-03T08:58:41;2.80;;;1.93;;
8058;SDS011;4072;42.668;23.396;2023-02-03T09:01:10;1.27;;;1.17;;
8058;SDS011;4072;42.668;23.396;2023-02-03T09:03:39;3.27;;;2.07;;
8058;SDS011;4072;42.668;23.396;2023-02-03T09:06:07;1.93;;;1.47;;
8058;SDS011;4072;42.668;23.396;2023-02-03T09:08:37;2.00;;;1.70;;
8058;SDS011;4072;42.668;23.396;2023-02-03T09:11:07;5.33;;;2.07;;
8058;SDS011;4072;42.668;23.396;2023-02-03T09:13:35;1.57;;;1.47;;
8058;SDS011;4072;42.668;23.396;2023-02-03T09:16:04;2.50;;;1.60;;
8058;SDS011;4072;42.668;23.396;2023-02-03T09:18:34;2.47;;;1.87;;
8058;SDS011;4072;42.668;23.396;2023-02-03T09:21:01;1.63;;;1.53;;
8058;SDS011;4072;42.668;23.396;2023-02-03T09:23:29;2.60;;;1.60;;
8058;SDS011;4072;42.668;23.396;2023-02-03T09:26:00;3.10;;;2.13;;
8058;SDS011;4072;42.668;23.396;2023-02-03T09:28:28;3.37;;;2.63;;
8058;SDS011;4072;42.668;23.396;2023-02-03T09:30:58;3.47;;;2.07;;
8058;SDS011;4072;42.668;23.396;2023-02-03T09:33:25;3.63;;;2.20;;
8058;SDS011;4072;42.668;23.396;2023-02-03T09:35:55;3.10;;;2.10;;
8058;SDS011;4072;42.668;23.396;2023-02-03T09:38:23;1.97;;;1.80;;
8058;SDS011;4072;42.668;23.396;2023-02-03T09:40:52;1.10;;;1.00;;
8058;SDS011;4072;42.668;23.396;2023-02-03T09:43:37;2.60;;;2.37;;
8058;SDS011;4072;42.668;23.396;2023-02-03T09:46:10;2.30;;;1.90;;
8058;SDS011;4072;42.668;23.396;2023-02-03T09:48:40;2.00;;;1.80;;
8058;SDS011;4072;42.668;23.396;2023-02-03T09:51:15;2.97;;;1.80;;
8058;SDS011;4072;42.668;23.396;2023-02-03T09:53:44;1.60;;;1.30;;
8058;SDS011;4072;42.668;23.396;2023-02-03T09:56:17;1.83;;;1.73;;
8058;SDS011;4072;42.668;23.396;2023-02-03T09:58:47;1.83;;;1.73;;
8058;SDS011;4072;42.668;23.396;2023-02-03T10:01:14;2.93;;;2.63;;
8058;SDS011;4072;42.668;23.396;2023-02-03T10:03:46;2.87;;;2.60;;
8058;SDS011;4072;42.668;23.396;2023-02-03T10:06:20;3.23;;;2.37;;
8058;SDS011;4072;42.668;23.396;2023-02-03T10:08:53;5.30;;;3.40;;
8058;SDS011;4072;42.668;23.396;2023-02-03T10:11:26;3.50;;;1.97;;
8058;SDS011;4072;42.668;23.396;2023-02-03T10:14:00;4.40;;;2.50;;
8058;SDS011;4072;42.668;23.396;2023-02-03T10:16:34;3.90;;;2.90;;
8058;SDS011;4072;42.668;23.396;2023-02-03T10:19:07;4.73;;;3.30;;
8058;SDS011;4072;42.668;23.396;2023-02-03T10:21:39;4.83;;;2.97;;
8058;SDS011;4072;42.668;23.396;2023-02-03T10:24:08;2.17;;;1.43;;
8058;SDS011;4072;42.668;23.396;2023-02-03T10:26:37;2.40;;;2.20;;
8058;SDS011;4072;42.668;23.396;2023-02-03T10:29:07;2.13;;;1.70;;
8058;SDS011;4072;42.668;23.396;2023-02-03T10:31:39;1.80;;;1.70;;
8058;SDS011;4072;42.668;23.396;2023-02-03T10:34:09;3.07;;;1.50;;
8058;SDS011;4072;42.668;23.396;2023-02-03T10:36:42;5.50;;;2.10;;
8058;SDS011;4072;42.668;23.396;2023-02-03T10:39:16;3.20;;;2.07;;
8058;SDS011;4072;42.668;23.396;2023-02-03T10:41:46;2.73;;;2.13;;
8058;SDS011;4072;42.668;23.396;2023-02-03T10:44:14;1.80;;;1.50;;
8058;SDS011;4072;42.668;23.396;2023-02-03T10:46:42;3.13;;;1.73;;
8058;SDS011;4072;42.668;23.396;2023-02-03T10:49:11;2.50;;;2.13;;
8058;SDS011;4072;42.668;23.396;2023-02-03T10:51:42;3.70;;;2.90;;
8058;SDS011;4072;42.668;23.396;2023-02-03T10:56:54;2.40;;;1.93;;
8058;SDS011;4072;42.668;23.396;2023-02-03T10:59:26;3.83;;;1.90;;
8058;SDS011;4072;42.668;23.396;2023-02-03T11:01:54;1.77;;;1.60;;
8058;SDS011;4072;42.668;23.396;2023-02-03T11:04:23;4.20;;;2.23;;
8058;SDS011;4072;42.668;23.396;2023-02-03T11:06:56;5.57;;;1.17;;
8058;SDS011;4072;42.668;23.396;2023-02-03T11:09:29;2.83;;;2.17;;
8058;SDS011;4072;42.668;23.396;2023-02-03T11:14:43;4.17;;;2.70;;
8058;SDS011;4072;42.668;23.396;2023-02-03T11:17:13;1.60;;;1.50;;
8058;SDS011;4072;42.668;23.396;2023-02-03T11:19:42;1.83;;;1.60;;
8058;SDS011;4072;42.668;23.396;2023-02-03T11:22:12;2.80;;;1.97;;
8058;SDS011;4072;42.668;23.396;2023-02-03T11:24:40;1.40;;;1.30;;
8058;SDS011;4072;42.668;23.396;2023-02-03T11:27:10;2.17;;;1.83;;
8058;SDS011;4072;42.668;23.396;2023-02-03T11:29:40;1.93;;;1.70;;
8058;SDS011;4072;42.668;23.396;2023-02-03T11:32:14;4.60;;;2.27;;
8058;SDS011;4072;42.668;23.396;2023-02-03T11:34:45;1.17;;;1.07;;
8058;SDS011;4072;42.668;23.396;2023-02-03T11:37:27;4.00;;;1.50;;
8058;SDS011;4072;42.668;23.396;2023-02-03T11:39:56;4.27;;;2.37;;
8058;SDS011;4072;42.668;23.396;2023-02-03T11:42:38;1.57;;;1.47;;
8058;SDS011;4072;42.668;23.396;2023-02-03T11:45:12;1.93;;;1.37;;
8058;SDS011;4072;42.668;23.396;2023-02-03T11:47:43;3.97;;;2.00;;
8058;SDS011;4072;42.668;23.396;2023-02-03T11:50:14;5.50;;;3.23;;
8058;SDS011;4072;42.668;23.396;2023-02-03T11:52:51;2.63;;;2.43;;
8058;SDS011;4072;42.668;23.396;2023-02-03T11:55:25;2.60;;;2.30;;
8058;SDS011;4072;42.668;23.396;2023-02-03T11:58:00;3.83;;;2.23;;
8058;SDS011;4072;42.668;23.396;2023-02-03T12:00:34;1.17;;;1.13;;
8058;SDS011;4072;42.668;23.396;2023-02-03T12:03:07;2.53;;;1.60;;
8058;SDS011;4072;42.668;23.396;2023-02-03T12:08:29;2.27;;;1.50;;
8058;SDS011;4072;42.668;23.396;2023-02-03T12:11:03;1.43;;;1.30;;
8058;SDS011;4072;42.668;23.396;2023-02-03T12:13:38;1.67;;;1.40;;
8058;SDS011;4072;42.668;23.396;2023-02-03T12:16:15;2.67;;;2.00;;
8058;SDS011;4072;42.668;23.396;2023-02-03T12:18:48;3.17;;;1.40;;
8058;SDS011;4072;42.668;23.396;2023-02-03T12:21:27;3.83;;;2.23;;
8058;SDS011;4072;42.668;23.396;2023-02-03T12:24:01;2.23;;;1.40;;
8058;SDS011;4072;42.668;23.396;2023-02-03T12:26:33;3.27;;;1.80;;
8058;SDS011;4072;42.668;23.396;2023-02-03T12:29:03;1.10;;;1.00;;
8058;SDS011;4072;42.668;23.396;2023-02-03T12:31:32;2.67;;;2.10;;
8058;SDS011;4072;42.668;23.396;2023-02-03T12:34:03;3.57;;;2.13;;
8058;SDS011;4072;42.668;23.396;2023-02-03T12:36:35;2.03;;;1.80;;
8058;SDS011;4072;42.668;23.396;2023-02-03T12:39:06;2.03;;;1.70;;
8058;SDS011;4072;42.668;23.396;2023-02-03T12:41:39;1.87;;;1.20;;
8058;SDS011;4072;42.668;23.396;2023-02-03T12:44:07;1.13;;;1.03;;
8058;SDS011;4072;42.668;23.396;2023-02-03T12:46:41;1.47;;;0.90;;
8058;SDS011;4072;42.668;23.396;2023-02-03T12:49:12;1.10;;;1.00;;
8058;SDS011;4072;42.668;23.396;2023-02-03T12:51:43;0.80;;;0.70;;
8058;SDS011;4072;42.668;23.396;2023-02-03T12:54:19;3.83;;;1.43;;
8058;SDS011;4072;42.668;23.396;2023-02-03T12:56:48;2.80;;;1.17;;
8058;SDS011;4072;42.668;23.396;2023-02-03T12:59:19;3.23;;;1.53;;
8058;SDS011;4072;42.668;23.396;2023-02-03T13:01:49;1.63;;;1.10;;
8058;SDS011;4072;42.668;23.396;2023-02-03T13:04:22;1.97;;;1.53;;
8058;SDS011;4072;42.668;23.396;2023-02-03T13:06:53;4.10;;;1.10;;
8058;SDS011;4072;42.668;23.396;2023-02-03T13:09:26;1.70;;;1.37;;
8058;SDS011;4072;42.668;23.396;2023-02-03T13:11:56;2.57;;;1.83;;
8058;SDS011;4072;42.668;23.396;2023-02-03T13:14:27;1.13;;;1.03;;
8058;SDS011;4072;42.668;23.396;2023-02-03T13:17:00;1.10;;;1.00;;
8058;SDS011;4072;42.668;23.396;2023-02-03T13:19:34;3.13;;;2.00;;
8058;SDS011;4072;42.668;23.396;2023-02-03T13:22:07;1.80;;;1.40;;
8058;SDS011;4072;42.668;23.396;2023-02-03T13:24:38;3.50;;;1.63;;
8058;SDS011;4072;42.668;23.396;2023-02-03T13:27:10;2.40;;;1.40;;
8058;SDS011;4072;42.668;23.396;2023-02-03T13:29:48;1.83;;;1.63;;
8058;SDS011;4072;42.668;23.396;2023-02-03T13:32:23;2.67;;;2.20;;
8058;SDS011;4072;42.668;23.396;2023-02-03T13:35:00;2.33;;;2.13;;
8058;SDS011;4072;42.668;23.396;2023-02-03T13:37:33;4.47;;;2.20;;
8058;SDS011;4072;42.668;23.396;2023-02-03T13:40:14;2.30;;;2.03;;
8058;SDS011;4072;42.668;23.396;2023-02-03T13:42:43;2.10;;;1.90;;
8058;SDS011;4072;42.668;23.396;2023-02-03T13:45:18;1.70;;;1.50;;
8058;SDS011;4072;42.668;23.396;2023-02-03T13:47:48;1.67;;;1.57;;
8058;SDS011;4072;42.668;23.396;2023-02-03T13:50:20;2.23;;;1.93;;
8058;SDS011;4072;42.668;23.396;2023-02-03T13:52:52;3.20;;;2.37;;
8058;SDS011;4072;42.668;23.396;2023-02-03T13:55:28;3.70;;;2.03;;
8058;SDS011;4072;42.668;23.396;2023-02-03T13:57:56;4.83;;;2.87;;
8058;SDS011;4072;42.668;23.396;2023-02-03T14:03:14;2.07;;;1.90;;
8058;SDS011;4072;42.668;23.396;2023-02-03T14:05:43;2.93;;;2.27;;
8058;SDS011;4072;42.668;23.396;2023-02-03T14:13:44;6.27;;;2.30;;
8058;SDS011;4072;42.668;23.396;2023-02-03T14:16:21;3.70;;;2.03;;
8058;SDS011;4072;42.668;23.396;2023-02-03T14:18:49;3.13;;;2.33;;
8058;SDS011;4072;42.668;23.396;2023-02-03T14:21:17;3.40;;;2.23;;
8058;SDS011;4072;42.668;23.396;2023-02-03T14:26:35;3.37;;;2.83;;
8058;SDS011;4072;42.668;23.396;2023-02-03T14:29:06;4.17;;;3.07;;
8058;SDS011;4072;42.668;23.396;2023-02-03T14:31:54;3.33;;;2.60;;
8058;SDS011;4072;42.668;23.396;2023-02-03T14:34:33;2.90;;;2.60;;
8058;SDS011;4072;42.668;23.396;2023-02-03T14:37:11;3.00;;;2.50;;
8058;SDS011;4072;42.668;23.396;2023-02-03T14:39:57;3.83;;;2.60;;
8058;SDS011;4072;42.668;23.396;2023-02-03T14:42:31;4.30;;;2.27;;
8058;SDS011;4072;42.668;23.396;2023-02-03T14:45:06;2.30;;;2.10;;
8058;SDS011;4072;42.668;23.396;2023-02-03T14:47:42;3.63;;;2.27;;
8058;SDS011;4072;42.668;23.396;2023-02-03T14:50:16;3.90;;;2.93;;
8058;SDS011;4072;42.668;23.396;2023-02-03T14:52:51;3.47;;;3.03;;
8058;SDS011;4072;42.668;23.396;2023-02-03T14:55:25;3.07;;;2.20;;
8058;SDS011;4072;42.668;23.396;2023-02-03T14:57:56;6.00;;;2.70;;
8058;SDS011;4072;42.668;23.396;2023-02-03T15:00:31;3.07;;;1.57;;
8058;SDS011;4072;42.668;23.396;2023-02-03T15:03:19;3.37;;;2.40;;
8058;SDS011;4072;42.668;23.396;2023-02-03T15:05:48;2.33;;;2.10;;
8058;SDS011;4072;42.668;23.396;2023-02-03T15:11:19;3.73;;;1.93;;
8058;SDS011;4072;42.668;23.396;2023-02-03T15:13:48;4.80;;;2.57;;
8058;SDS011;4072;42.668;23.396;2023-02-03T15:16:17;2.80;;;2.07;;
8058;SDS011;4072;42.668;23.396;2023-02-03T15:18:51;4.37;;;2.27;;
8058;SDS011;4072;42.668;23.396;2023-02-03T15:21:19;1.83;;;1.63;;
8058;SDS011;4072;42.668;23.396;2023-02-03T15:23:47;4.13;;;2.20;;
8058;SDS011;4072;42.668;23.396;2023-02-03T15:26:16;2.90;;;2.37;;
8058;SDS011;4072;42.668;23.396;2023-02-03T15:28:52;5.37;;;3.40;;
8058;SDS011;4072;42.668;23.396;2023-02-03T15:31:22;3.43;;;3.10;;
8058;SDS011;4072;42.668;23.396;2023-02-03T15:33:51;4.37;;;3.10;;
8058;SDS011;4072;42.668;23.396;2023-02-03T15:36:20;3.33;;;3.03;;
8058;SDS011;4072;42.668;23.396;2023-02-03T15:38:50;5.27;;;3.47;;
8058;SDS011;4072;42.668;23.396;2023-02-03T15:41:22;4.10;;;2.77;;
8058;SDS011;4072;42.668;23.396;2023-02-03T15:43:51;7.87;;;3.30;;
8058;SDS011;4072;42.668;23.396;2023-02-03T15:46:23;4.43;;;3.13;;